createdAt,value
2023-03-19T00:00:42.786Z,10.30
2023-03-19T00:03:09.444Z,10.30
2023-03-19T00:05:36.471Z,10.30
2023-03-19T00:08:03.034Z,10.30
2023-03-19T00:10:29.664Z,10.30
2023-03-19T00:12:56.579Z,10.30
2023-03-19T00:15:23.466Z,10.20
2023-03-19T00:17:50.214Z,10.10
2023-03-19T00:20:18.190Z,10.10
2023-03-19T00:22:44.912Z,10.00
2023-03-19T00:25:11.480Z,9.90
2023-03-19T00:27:38.720Z,9.90
2023-03-19T00:30:09.094Z,9.90
2023-03-19T00:32:36.638Z,9.90
2023-03-19T00:35:06.222Z,9.80
2023-03-19T00:37:32.951Z,9.80
2023-03-19T00:39:59.735Z,9.90
2023-03-19T00:42:26.968Z,10.00
2023-03-19T00:44:56.832Z,9.90
2023-03-19T00:47:23.987Z,9.90
2023-03-19T00:49:50.919Z,9.50
2023-03-19T00:52:17.524Z,9.60
2023-03-19T00:54:44.094Z,9.70
2023-03-19T00:57:12.801Z,9.60
2023-03-19T00:59:39.446Z,9.60
2023-03-19T01:02:06.036Z,9.60
2023-03-19T01:04:32.794Z,9.50
2023-03-19T01:09:26.051Z,9.40
2023-03-19T01:11:52.809Z,9.50
2023-03-19T01:14:19.418Z,9.40
2023-03-19T01:16:46.207Z,9.40
2023-03-19T01:19:13.149Z,9.40
2023-03-19T01:21:39.952Z,9.40
2023-03-19T01:24:06.860Z,9.40
2023-03-19T01:26:33.408Z,9.50
2023-03-19T01:29:00.101Z,9.10
2023-03-19T01:31:27.061Z,9.40
2023-03-19T01:33:53.767Z,9.50
2023-03-19T01:36:20.352Z,9.50
2023-03-19T01:38:46.975Z,9.40
2023-03-19T01:41:13.825Z,9.40
2023-03-19T01:43:40.602Z,9.30
2023-03-19T01:46:16.364Z,9.20
2023-03-19T01:48:48.395Z,9.10
2023-03-19T01:51:18.049Z,9.00
2023-03-19T01:53:49.339Z,9.00
2023-03-19T01:56:21.514Z,8.90
2023-03-19T01:58:51.692Z,9.00
2023-03-19T02:01:18.992Z,9.00
2023-03-19T02:03:46.687Z,9.00
2023-03-19T02:06:14.061Z,9.00
2023-03-19T02:08:42.143Z,8.90
2023-03-19T02:11:09.818Z,8.80
2023-03-19T02:13:36.617Z,8.80
2023-03-19T02:16:04.250Z,9.00
2023-03-19T02:18:31.543Z,9.00
2023-03-19T02:21:11.338Z,9.10
2023-03-19T02:23:47.371Z,9.10
2023-03-19T02:26:16.647Z,9.20
2023-03-19T02:28:46.275Z,9.20
2023-03-19T02:31:13.615Z,9.10
2023-03-19T02:33:40.482Z,9.10
2023-03-19T02:36:13.538Z,9.10
2023-03-19T02:38:42.651Z,9.00
2023-03-19T02:41:10.474Z,9.10
2023-03-19T02:43:40.769Z,8.70
2023-03-19T02:46:11.808Z,9.00
2023-03-19T02:48:38.528Z,9.00
2023-03-19T02:51:05.878Z,8.90
2023-03-19T02:53:34.714Z,8.90
2023-03-19T02:56:01.565Z,9.00
2023-03-19T02:58:28.415Z,9.00
2023-03-19T03:00:55.062Z,9.00
2023-03-19T03:03:21.993Z,8.90
2023-03-19T03:05:48.597Z,8.90
2023-03-19T03:08:15.757Z,8.90
2023-03-19T03:10:42.425Z,8.90
2023-03-19T03:13:09.194Z,8.90
2023-03-19T03:15:35.991Z,9.00
2023-03-19T03:18:02.602Z,9.00
2023-03-19T03:20:29.262Z,9.00
2023-03-19T03:22:55.904Z,9.00
2023-03-19T03:25:22.586Z,9.00
2023-03-19T03:27:49.188Z,9.00
2023-03-19T03:30:16.908Z,9.00
2023-03-19T03:32:43.923Z,8.90
2023-03-19T03:35:10.867Z,8.90
2023-03-19T03:37:38.121Z,8.90
2023-03-19T03:40:09.521Z,8.80
2023-03-19T03:42:37.399Z,8.80
2023-03-19T03:45:04.832Z,8.80
2023-03-19T03:47:31.504Z,8.60
2023-03-19T03:49:58.122Z,8.50
2023-03-19T03:52:24.745Z,8.50
2023-03-19T03:54:51.293Z,8.60
2023-03-19T03:57:17.845Z,8.80
2023-03-19T03:59:44.451Z,8.80
2023-03-19T04:02:11.376Z,8.80
2023-03-19T04:04:38.139Z,8.80
2023-03-19T04:07:04.805Z,8.70
2023-03-19T04:09:31.454Z,8.90
2023-03-19T04:11:58.064Z,8.80
2023-03-19T04:14:24.741Z,8.90
2023-03-19T04:16:52.110Z,9.00
2023-03-19T04:19:19.143Z,8.90
2023-03-19T04:21:45.906Z,8.70
2023-03-19T04:24:12.923Z,8.80
2023-03-19T04:26:39.930Z,8.90
2023-03-19T04:29:08.677Z,8.90
2023-03-19T04:31:35.375Z,9.00
2023-03-19T04:34:01.976Z,9.00
2023-03-19T04:36:28.960Z,9.00
2023-03-19T04:38:55.714Z,8.90
2023-03-19T04:41:22.668Z,9.00
2023-03-19T04:43:49.297Z,9.00
2023-03-19T04:46:16.954Z,8.90
2023-03-19T04:48:43.636Z,8.90
2023-03-19T04:51:10.308Z,8.90
2023-03-19T04:53:37.956Z,8.80
2023-03-19T04:56:04.949Z,8.90
2023-03-19T04:58:31.553Z,8.90
2023-03-19T05:00:58.161Z,8.80
2023-03-19T05:03:24.806Z,8.80
2023-03-19T05:05:54.027Z,8.80
2023-03-19T05:08:20.957Z,8.90
2023-03-19T05:10:47.515Z,8.90
2023-03-19T05:13:14.107Z,8.80
2023-03-19T05:15:44.330Z,8.90
2023-03-19T05:18:11.833Z,8.90
2023-03-19T05:20:39.227Z,8.90
2023-03-19T05:23:06.562Z,8.70
2023-03-19T05:25:35.167Z,8.80
2023-03-19T05:28:02.434Z,8.80
2023-03-19T05:30:28.972Z,8.80
2023-03-19T05:32:57.633Z,8.70
2023-03-19T05:35:25.269Z,8.70
2023-03-19T05:37:51.986Z,8.60
2023-03-19T05:40:18.665Z,8.40
2023-03-19T05:42:45.562Z,8.60
2023-03-19T05:45:12.349Z,8.70
2023-03-19T05:47:39.260Z,8.60
2023-03-19T05:50:07.523Z,8.60
2023-03-19T05:52:34.161Z,8.50
2023-03-19T05:55:00.909Z,8.50
2023-03-19T05:57:27.960Z,8.40
2023-03-19T05:59:54.519Z,8.20
2023-03-19T06:02:21.130Z,8.40
2023-03-19T06:04:47.802Z,8.50
2023-03-19T06:07:14.352Z,8.50
2023-03-19T06:09:41.215Z,8.60
2023-03-19T06:12:08.364Z,8.70
2023-03-19T06:14:34.996Z,8.70
2023-03-19T06:17:01.569Z,8.80
2023-03-19T06:19:28.143Z,8.90
2023-03-19T06:21:54.706Z,9.00
2023-03-19T06:24:21.300Z,9.10
2023-03-19T06:26:47.844Z,9.30
2023-03-19T06:29:14.427Z,9.60
2023-03-19T06:31:41.674Z,10.00
2023-03-19T06:34:08.449Z,10.40
2023-03-19T06:36:35.064Z,10.60
2023-03-19T06:39:03.098Z,10.80
2023-03-19T06:41:29.908Z,11.10
2023-03-19T06:43:56.862Z,10.80
2023-03-19T06:46:24.112Z,11.00
2023-03-19T06:48:50.793Z,11.30
2023-03-19T06:51:17.429Z,11.50
2023-03-19T06:53:43.988Z,11.50
2023-03-19T06:56:10.636Z,11.60
2023-03-19T06:58:37.230Z,11.50
2023-03-19T07:01:04.178Z,11.10
2023-03-19T07:03:31.286Z,10.70
2023-03-19T07:05:58.034Z,10.40
2023-03-19T07:08:29.420Z,10.40
2023-03-19T07:10:57.283Z,10.50
2023-03-19T07:13:24.000Z,10.50
2023-03-19T07:15:50.624Z,10.40
2023-03-19T07:18:17.276Z,9.90
2023-03-19T07:20:43.836Z,10.10
2023-03-19T07:23:10.458Z,9.90
2023-03-19T07:25:37.025Z,9.90
2023-03-19T07:28:04.008Z,10.00
2023-03-19T07:30:30.739Z,9.90
2023-03-19T07:32:57.404Z,9.80
2023-03-19T07:35:24.045Z,9.80
2023-03-19T07:37:50.742Z,9.80
2023-03-19T07:40:17.373Z,9.90
2023-03-19T07:42:45.176Z,10.00
2023-03-19T07:45:12.183Z,10.10
2023-03-19T07:47:39.931Z,10.00
2023-03-19T07:50:07.285Z,10.20
2023-03-19T07:52:33.887Z,10.10
2023-03-19T07:55:00.566Z,10.00
2023-03-19T07:57:27.436Z,9.90
2023-03-19T07:59:54.039Z,9.90
2023-03-19T08:02:22.901Z,9.90
2023-03-19T08:04:50.421Z,9.90
2023-03-19T08:07:17.183Z,9.90
2023-03-19T08:09:44.161Z,9.90
2023-03-19T08:12:10.958Z,9.90
2023-03-19T08:14:37.637Z,10.00
2023-03-19T08:17:04.296Z,9.90
2023-03-19T08:19:31.763Z,9.70
2023-03-19T08:21:58.333Z,10.00
2023-03-19T08:24:25.078Z,10.00
2023-03-19T08:26:51.641Z,10.00
2023-03-19T08:29:19.098Z,10.00
2023-03-19T08:31:46.256Z,10.10
2023-03-19T08:34:12.922Z,10.10
2023-03-19T08:36:39.553Z,10.10
2023-03-19T08:39:06.270Z,10.20
2023-03-19T08:41:32.865Z,10.10
2023-03-19T08:43:59.617Z,9.80
2023-03-19T08:46:27.583Z,9.80
2023-03-19T08:48:54.170Z,9.70
2023-03-19T08:51:20.985Z,9.60
2023-03-19T08:53:47.793Z,9.60
2023-03-19T08:56:14.413Z,9.70
2023-03-19T08:58:42.116Z,9.80
2023-03-19T09:01:11.903Z,9.80
2023-03-19T09:03:40.450Z,9.80
2023-03-19T09:06:09.685Z,9.40
2023-03-19T09:08:37.411Z,9.80
2023-03-19T09:11:05.678Z,11.50
2023-03-19T09:13:33.005Z,9.70
2023-03-19T09:15:59.808Z,9.70
2023-03-19T09:18:26.520Z,9.70
2023-03-19T09:20:54.201Z,9.70
2023-03-19T09:23:22.063Z,9.70
2023-03-19T09:25:48.958Z,9.80
2023-03-19T09:28:15.990Z,9.80
2023-03-19T09:30:43.341Z,9.80
2023-03-19T09:33:10.053Z,9.80
2023-03-19T09:35:38.568Z,9.90
2023-03-19T09:38:05.873Z,9.90
2023-03-19T09:40:41.169Z,9.90
2023-03-19T09:43:26.365Z,9.80
2023-03-19T09:45:53.094Z,10.00
2023-03-19T09:48:32.350Z,10.00
2023-03-19T09:51:01.859Z,10.00
2023-03-19T09:53:45.544Z,10.10
2023-03-19T09:56:15.211Z,10.10
2023-03-19T09:58:42.558Z,10.30
2023-03-19T10:01:27.881Z,10.60
2023-03-19T10:04:17.972Z,10.80
2023-03-19T10:06:44.628Z,11.00
2023-03-19T10:10:00.657Z,11.10
2023-03-19T10:12:38.527Z,11.20
2023-03-19T10:15:19.846Z,11.30
2023-03-19T10:18:05.083Z,11.30
2023-03-19T10:20:49.794Z,11.40
2023-03-19T10:23:39.494Z,11.50
2023-03-19T10:26:12.131Z,11.50
2023-03-19T10:28:41.981Z,11.70
2023-03-19T10:31:29.804Z,11.70
2023-03-19T10:34:11.306Z,11.80
2023-03-19T10:36:38.622Z,11.90
2023-03-19T10:39:07.799Z,12.00
2023-03-19T10:41:40.410Z,12.10
2023-03-19T10:44:14.591Z,12.20
2023-03-19T10:46:41.769Z,12.20
2023-03-19T10:49:13.086Z,12.30
2023-03-19T10:51:42.935Z,12.40
2023-03-19T10:54:22.988Z,12.60
2023-03-19T10:56:50.767Z,12.80
2023-03-19T10:59:24.758Z,13.00
2023-03-19T11:02:01.405Z,13.10
2023-03-19T11:04:29.667Z,13.20
2023-03-19T11:07:02.327Z,13.20
2023-03-19T11:09:37.047Z,13.20
2023-03-19T11:12:08.193Z,13.50
2023-03-19T11:14:43.783Z,13.40
2023-03-19T11:17:37.027Z,13.50
2023-03-19T11:20:34.987Z,13.50
2023-03-19T11:23:04.095Z,13.50
2023-03-19T11:25:53.381Z,13.60
2023-03-19T11:28:26.728Z,13.40
2023-03-19T11:31:09.411Z,13.30
2023-03-19T11:33:41.773Z,13.30
2023-03-19T11:36:31.596Z,13.40
2023-03-19T11:39:10.495Z,13.50
2023-03-19T11:42:07.015Z,13.60
2023-03-19T11:45:10.942Z,13.50
2023-03-19T11:48:09.256Z,13.70
2023-03-19T11:51:02.565Z,13.80
2023-03-19T11:53:51.689Z,13.90
2023-03-19T11:56:35.625Z,13.80
2023-03-19T11:59:29.532Z,13.70
2023-03-19T12:02:30.464Z,13.70
2023-03-19T12:05:22.112Z,13.80
2023-03-19T12:08:03.744Z,13.90
2023-03-19T12:10:51.633Z,13.90
2023-03-19T12:13:56.509Z,13.80
2023-03-19T12:16:50.437Z,13.90
2023-03-19T12:19:54.858Z,13.90
2023-03-19T12:22:33.490Z,13.90
2023-03-19T12:25:27.710Z,13.90
2023-03-19T12:28:10.308Z,13.80
2023-03-19T12:30:43.297Z,13.90
2023-03-19T12:33:34.562Z,14.10
2023-03-19T12:36:08.296Z,14.30
2023-03-19T12:38:39.880Z,14.50
2023-03-19T12:41:12.656Z,14.40
2023-03-19T12:43:53.863Z,14.50
2023-03-19T12:46:44.162Z,14.60
2023-03-19T12:49:30.531Z,14.60
2023-03-19T12:52:06.150Z,14.60
2023-03-19T12:54:41.547Z,14.70
2023-03-19T12:57:19.480Z,14.70
2023-03-19T13:00:01.051Z,14.80
2023-03-19T13:02:42.798Z,14.90
2023-03-19T13:05:25.053Z,14.90
2023-03-19T13:08:13.310Z,15.00
2023-03-19T13:10:40.877Z,15.00
2023-03-19T13:13:37.278Z,14.90
2023-03-19T13:16:28.336Z,15.00
2023-03-19T13:19:32.417Z,15.00
2023-03-19T13:22:04.485Z,15.00
2023-03-19T13:24:36.380Z,15.00
2023-03-19T13:27:04.045Z,14.90
2023-03-19T13:29:32.257Z,14.90
2023-03-19T13:32:22.820Z,14.90
2023-03-19T13:34:49.484Z,15.00
2023-03-19T13:37:19.745Z,15.10
2023-03-19T13:39:48.636Z,15.00
2023-03-19T13:42:38.791Z,15.20
2023-03-19T13:45:29.067Z,15.20
2023-03-19T13:47:59.111Z,15.40
2023-03-19T13:50:30.706Z,15.40
2023-03-19T13:53:20.709Z,15.40
2023-03-19T13:55:53.814Z,15.40
2023-03-19T13:58:45.165Z,15.40
2023-03-19T14:01:25.532Z,15.40
2023-03-19T14:03:59.929Z,15.50
2023-03-19T14:06:42.368Z,15.60
2023-03-19T14:09:32.590Z,15.50
2023-03-19T14:12:15.834Z,15.50
2023-03-19T14:14:52.772Z,15.50
2023-03-19T14:17:25.902Z,15.50
2023-03-19T14:19:54.346Z,15.50
2023-03-19T14:22:29.473Z,15.40
2023-03-19T14:25:11.707Z,15.50
2023-03-19T14:27:48.441Z,15.70
2023-03-19T14:30:31.624Z,15.80
2023-03-19T14:33:02.806Z,16.00
2023-03-19T14:35:36.369Z,16.10
2023-03-19T14:38:11.547Z,16.10
2023-03-19T14:40:47.308Z,16.00
2023-03-19T14:43:58.299Z,16.10
2023-03-19T14:46:52.001Z,16.10
2023-03-19T14:49:56.166Z,16.00
2023-03-19T14:52:26.827Z,16.10
2023-03-19T14:55:12.456Z,16.30
2023-03-19T14:57:39.267Z,16.30
2023-03-19T15:00:12.905Z,16.20
2023-03-19T15:02:42.247Z,16.10
2023-03-19T15:05:21.076Z,16.20
2023-03-19T15:07:50.590Z,16.30
2023-03-19T15:10:23.416Z,16.30
2023-03-19T15:13:12.801Z,16.30
2023-03-19T15:15:46.690Z,16.20
2023-03-19T15:18:15.403Z,16.10
2023-03-19T15:20:58.706Z,16.20
2023-03-19T15:23:31.753Z,16.20
2023-03-19T15:26:01.769Z,16.10
2023-03-19T15:28:32.326Z,16.10
2023-03-19T15:31:21.793Z,16.00
2023-03-19T15:33:56.298Z,16.00
2023-03-19T15:36:30.806Z,16.00
2023-03-19T15:39:04.859Z,15.90
2023-03-19T15:41:42.834Z,15.90
2023-03-19T15:44:21.313Z,15.90
2023-03-19T15:46:49.651Z,16.00
2023-03-19T15:49:34.055Z,16.00
2023-03-19T15:52:05.272Z,16.00
2023-03-19T15:54:32.939Z,16.10
2023-03-19T15:56:59.525Z,16.10
2023-03-19T15:59:30.139Z,16.10
2023-03-19T16:01:59.792Z,16.10
2023-03-19T16:04:29.672Z,16.10
2023-03-19T16:06:57.924Z,16.20
2023-03-19T16:09:36.470Z,16.20
2023-03-19T16:12:03.157Z,16.20
2023-03-19T16:14:42.526Z,16.30
2023-03-19T16:17:14.926Z,16.30
2023-03-19T16:19:50.701Z,16.30
2023-03-19T16:22:24.100Z,16.30
2023-03-19T16:24:52.580Z,16.30
2023-03-19T16:27:22.069Z,16.10
2023-03-19T16:29:56.542Z,16.00
2023-03-19T16:32:25.341Z,15.90
2023-03-19T16:35:19.860Z,16.00
2023-03-19T16:37:48.773Z,16.00
2023-03-19T16:40:20.565Z,16.00
2023-03-19T16:42:55.969Z,15.90
2023-03-19T16:45:28.013Z,15.90
2023-03-19T16:48:00.190Z,15.80
2023-03-19T16:50:39.953Z,15.70
2023-03-19T16:53:19.056Z,15.50
2023-03-19T16:55:45.693Z,15.60
2023-03-19T16:58:18.160Z,15.40
2023-03-19T17:00:46.164Z,15.40
2023-03-19T17:03:15.592Z,15.40
2023-03-19T17:05:43.149Z,15.40
2023-03-19T17:08:09.815Z,15.30
2023-03-19T17:10:40.684Z,15.20
2023-03-19T17:13:07.606Z,15.20
2023-03-19T17:15:40.089Z,15.10
2023-03-19T17:18:37.049Z,15.10
2023-03-19T17:21:21.182Z,15.00
2023-03-19T17:23:47.928Z,15.00
2023-03-19T17:26:21.229Z,14.90
2023-03-19T17:28:48.490Z,14.80
2023-03-19T17:31:31.217Z,15.00
2023-03-19T17:34:09.618Z,14.70
2023-03-19T17:36:36.812Z,14.60
2023-03-19T17:39:04.387Z,14.50
2023-03-19T17:41:32.864Z,14.50
2023-03-19T17:44:01.327Z,14.50
2023-03-19T17:46:31.935Z,14.50
2023-03-19T17:48:58.630Z,14.60
2023-03-19T17:51:25.858Z,14.50
2023-03-19T17:53:55.205Z,14.40
2023-03-19T17:56:27.320Z,14.40
2023-03-19T17:58:54.364Z,14.30
2023-03-19T18:01:24.191Z,14.20
2023-03-19T18:06:41.071Z,14.00
2023-03-19T18:09:23.775Z,14.00
2023-03-19T18:11:51.021Z,13.80
2023-03-19T18:14:17.965Z,13.70
2023-03-19T18:16:45.544Z,13.50
2023-03-19T18:19:24.826Z,13.30
2023-03-19T18:21:51.407Z,13.40
2023-03-19T18:24:17.977Z,13.40
2023-03-19T18:26:44.757Z,13.40
2023-03-19T18:29:11.381Z,13.50
2023-03-19T18:31:38.277Z,13.50
2023-03-19T18:34:07.914Z,13.60
2023-03-19T18:36:35.299Z,13.60
2023-03-19T18:39:01.886Z,13.70
2023-03-19T18:41:29.091Z,13.70
2023-03-19T18:43:55.978Z,13.80
2023-03-19T18:46:31.456Z,13.70
2023-03-19T18:49:04.172Z,13.70
2023-03-19T18:51:31.404Z,13.70
2023-03-19T18:53:58.431Z,13.80
2023-03-19T18:56:31.065Z,13.80
2023-03-19T18:58:59.337Z,13.80
2023-03-19T19:01:27.505Z,13.70
2023-03-19T19:03:54.579Z,13.60
2023-03-19T19:06:44.229Z,13.50
2023-03-19T19:09:12.986Z,13.50
2023-03-19T19:11:41.535Z,13.40
2023-03-19T19:14:16.828Z,13.40
2023-03-19T19:16:43.907Z,13.30
2023-03-19T19:19:24.066Z,13.20
2023-03-19T19:21:51.983Z,13.10
2023-03-19T19:24:18.669Z,13.10
2023-03-19T19:26:47.359Z,13.00
2023-03-19T19:29:34.421Z,13.00
2023-03-19T19:32:04.307Z,13.10
2023-03-19T19:34:31.167Z,13.20
2023-03-19T19:37:00.263Z,13.20
2023-03-19T19:39:27.084Z,13.20
2023-03-19T19:41:55.104Z,13.20
2023-03-19T19:44:22.699Z,13.30
2023-03-19T19:46:53.994Z,13.30
2023-03-19T19:49:21.699Z,13.00
2023-03-19T19:51:48.558Z,13.20
2023-03-19T19:54:15.718Z,13.10
2023-03-19T19:56:42.543Z,13.10
2023-03-19T19:59:14.777Z,13.10
2023-03-19T20:01:41.444Z,13.10
2023-03-19T20:04:16.249Z,13.20
2023-03-19T20:06:42.873Z,13.10
2023-03-19T20:09:09.415Z,13.10
2023-03-19T20:11:36.144Z,13.10
2023-03-19T20:14:02.702Z,13.10
2023-03-19T20:16:29.605Z,13.10
2023-03-19T20:18:56.839Z,13.10
2023-03-19T20:21:23.443Z,13.00
2023-03-19T20:23:53.006Z,13.10
2023-03-19T20:26:22.608Z,13.20
2023-03-19T20:28:50.615Z,13.20
2023-03-19T20:31:29.418Z,13.30
2023-03-19T20:33:57.377Z,13.30
2023-03-19T20:36:23.936Z,13.20
2023-03-19T20:38:52.324Z,13.10
2023-03-19T20:41:24.598Z,13.10
2023-03-19T20:43:51.946Z,13.10
2023-03-19T20:46:20.292Z,13.10
2023-03-19T20:48:47.752Z,13.10
2023-03-19T20:51:21.504Z,13.10
2023-03-19T20:53:49.746Z,13.00
2023-03-19T20:56:18.216Z,13.10
2023-03-19T20:58:45.419Z,12.80
2023-03-19T21:01:13.244Z,12.90
2023-03-19T21:03:39.859Z,13.00
2023-03-19T21:06:15.081Z,13.00
2023-03-19T21:08:44.467Z,13.00
2023-03-19T21:11:19.186Z,12.90
2023-03-19T21:13:47.920Z,13.30
2023-03-19T21:16:20.184Z,13.00
2023-03-19T21:18:47.951Z,12.90
2023-03-19T21:21:16.592Z,12.90
2023-03-19T21:23:56.224Z,12.80
2023-03-19T21:26:23.431Z,12.90
2023-03-19T21:28:54.045Z,12.70
2023-03-19T21:31:21.823Z,12.80
2023-03-19T21:33:49.920Z,12.80
2023-03-19T21:36:16.896Z,12.70
2023-03-19T21:38:43.835Z,12.60
2023-03-19T21:41:24.791Z,12.60
2023-03-19T21:44:01.712Z,12.60
2023-03-19T21:46:30.942Z,12.60
2023-03-19T21:48:58.646Z,12.40
2023-03-19T21:51:27.680Z,12.50
2023-03-19T21:53:54.679Z,12.50
2023-03-19T21:56:32.523Z,12.60
2023-03-19T21:59:02.194Z,12.70
2023-03-19T22:01:29.163Z,12.70
2023-03-19T22:03:59.629Z,12.60
2023-03-19T22:06:26.237Z,12.60
2023-03-19T22:08:54.328Z,12.60
2023-03-19T22:11:32.507Z,12.50
2023-03-19T22:14:26.715Z,12.60
2023-03-19T22:16:55.093Z,12.50
2023-03-19T22:19:21.882Z,12.40
2023-03-19T22:21:49.373Z,12.40
2023-03-19T22:24:16.146Z,12.30
2023-03-19T22:26:43.800Z,12.40
2023-03-19T22:29:20.229Z,12.40
2023-03-19T22:31:51.397Z,12.30
2023-03-19T22:34:21.519Z,12.20
2023-03-19T22:36:48.233Z,12.20
2023-03-19T22:39:15.380Z,12.10
2023-03-19T22:41:45.707Z,12.00
2023-03-19T22:44:28.461Z,12.00
2023-03-19T22:46:56.717Z,12.00
2023-03-19T22:49:24.588Z,12.00
2023-03-19T22:51:51.269Z,11.90
2023-03-19T22:54:17.818Z,12.00
2023-03-19T22:56:44.442Z,12.00
2023-03-19T22:59:11.003Z,11.90
2023-03-19T23:01:43.451Z,11.90
2023-03-19T23:04:20.814Z,11.80
2023-03-19T23:06:47.747Z,11.80
2023-03-19T23:09:16.734Z,11.90
2023-03-19T23:11:43.821Z,12.00
2023-03-19T23:14:26.095Z,12.00
2023-03-19T23:19:29.894Z,11.90
2023-03-19T23:21:58.661Z,10.20
2023-03-19T23:24:25.683Z,11.90
2023-03-19T23:26:55.188Z,11.90
2023-03-19T23:29:26.884Z,11.80
2023-03-19T23:31:53.658Z,11.70
2023-03-19T23:34:20.239Z,11.80
2023-03-19T23:36:47.329Z,11.70
2023-03-19T23:39:14.029Z,11.80
2023-03-19T23:41:48.461Z,11.80
2023-03-19T23:44:18.274Z,11.80
2023-03-19T23:46:47.240Z,11.80
2023-03-19T23:49:15.898Z,11.80
2023-03-19T23:51:42.669Z,11.80
2023-03-19T23:54:24.145Z,11.80
2023-03-19T23:56:52.275Z,11.70
2023-03-19T23:59:18.885Z,11.80
